Rhapsody Of The Seas — C6UA2 — position and weather

sailwx.info

Track history (hours):
 
Tides and Currents Weather Stations Pressure Air Temp Water Temp Dewpoint Dewpoint Depression Visibility Wind Speed Wind Dir Waves Ship Positions

Rhapsody Of The Seas

Last reported at 2017-Dec-10 23:06 UTC. Time now 2017-Dec-12 04:27 UTC.
Position N 27°41' W 082°35'.

Type: Passenger vessel. MMSI: 311805000.

Date/timePositionNaut miles runAvg speedWind from/ knotsBaromVisibWave heightAir tempDewpointWater temp
2017-Dec-10 23:06N 27°41' W 082°35'114.0
2017-Dec-10 23:00N 27°42' W 082°33'612.8
2017-Dec-10 22:31N 27°47' W 082°30'611.4
2017-Dec-10 22:01N 27°52' W 082°27'4 7.2
2017-Dec-10 21:30N 27°56' W 082°27'1 2.7
2017-Dec-10 21:00N 27°57' W 082°27'0 0.0
2017-Dec-10 20:30N 27°57' W 082°27'0 0.0
2017-Dec-10 20:00N 27°57' W 082°27'0 0.0
2017-Dec-10 19:30N 27°57' W 082°27'0 0.0
2017-Dec-10 18:58N 27°57' W 082°27'0 0.0
2017-Dec-10 18:28N 27°57' W 082°27'0 0.0
2017-Dec-10 17:58N 27°57' W 082°27'0 0.0
2017-Dec-10 17:28N 27°57' W 082°27'0 0.0
2017-Dec-10 16:58N 27°57' W 082°27'0 0.0
2017-Dec-10 16:28N 27°57' W 082°27'0 0.0
2017-Dec-10 15:58N 27°57' W 082°27'0 0.0
2017-Dec-10 15:28N 27°57' W 082°27'0 0.0
2017-Dec-10 14:58N 27°57' W 082°27'0 0.0
2017-Dec-10 14:28N 27°57' W 082°27'0 0.0
2017-Dec-10 13:58N 27°57' W 082°27'0 0.0
2017-Dec-10 13:28N 27°57' W 082°27'0 0.0
2017-Dec-10 12:58N 27°57' W 082°27'0 0.0
2017-Dec-10 12:28N 27°57' W 082°27'0 0.0
2017-Dec-10 11:58N 27°57' W 082°27'0 0.8
2017-Dec-10 11:28N 27°57' W 082°27'1 2.4
2017-Dec-10 11:01N 27°55' W 082°27'3 6.5
2017-Dec-10 10:30N 27°52' W 082°27'611.8
2017-Dec-10 10:01N 27°47' W 082°30'49215.8
2017-Dec-09 02:57N 20°39' W 086°56'1022.8
2017-Dec-09 02:30N 20°31' W 087°03'2 0.0
2017-Dec-06 22:37N 20°29' W 087°02'215.1
2017-Dec-06 22:30N 20°30' W 087°00'3 5.1
2017-Dec-06 22:00N 20°31' W 086°57'0 0.0
2017-Dec-06 21:27N 20°31' W 086°57'0 0.0
2017-Dec-06 21:00N 20°31' W 086°57'  
2017-Dec-04 00:49N 27°35' W 082°60'716.7
2017-Dec-04 00:23N 27°36' W 082°52'714.6
2017-Dec-03 23:55N 27°36' W 082°44'914.6
2017-Dec-03 23:16N 27°41' W 082°35'414.7
2017-Dec-03 23:01N 27°44' W 082°32'612.3
2017-Dec-03 22:30N 27°48' W 082°27'611.9
2017-Dec-03 22:00N 27°54' W 082°26'2 3.9
2017-Dec-03 21:30N 27°56' W 082°27'1 1.4
2017-Dec-03 21:00N 27°57' W 082°27'0 0.0
2017-Dec-03 20:30N 27°57' W 082°27'0 0.0
2017-Dec-03 20:00N 27°57' W 082°27'0 0.0
2017-Dec-03 19:30N 27°57' W 082°27'0 0.0
2017-Dec-03 19:00N 27°57' W 082°27'0 0.0
2017-Dec-03 18:30N 27°57' W 082°27'0 0.0
2017-Dec-03 18:00N 27°57' W 082°27'0 0.0
2017-Dec-03 17:30N 27°57' W 082°27'0 0.0
2017-Dec-03 17:00N 27°57' W 082°27'0 0.0
2017-Dec-03 16:30N 27°57' W 082°27'0 0.0
2017-Dec-03 16:00N 27°57' W 082°27'0 0.0
2017-Dec-03 15:30N 27°57' W 082°27'0 0.0
2017-Dec-03 15:00N 27°57' W 082°27'0 0.0
2017-Dec-03 14:30N 27°57' W 082°27'0 0.0
2017-Dec-03 13:57N 27°57' W 082°27'0 0.0
2017-Dec-03 13:30N 27°57' W 082°27'0 0.0
2017-Dec-03 13:00N 27°57' W 082°27'0 0.0
2017-Dec-03 12:30N 27°57' W 082°27'0 0.0
2017-Dec-03 12:00N 27°57' W 082°27'0 0.0
2017-Dec-03 11:30N 27°57' W 082°27'0 0.8
2017-Dec-03 11:01N 27°56' W 082°27'2 3.3
2017-Dec-03 10:30N 27°55' W 082°27'4 8.1
2017-Dec-03 10:00N 27°51' W 082°27'612.0
2017-Dec-03 09:31N 27°46' W 082°31'2712.4
2017-Dec-03 07:20N 27°35' W 082°59'24817.3
2017-Dec-02 17:00N 23°48' W 084°48'   060 / 151015.0 25.019.126.0
Track history (hours):
 
Tides and Currents Weather Stations Pressure Air Temp Water Temp Dewpoint Dewpoint Depression Visibility Wind Speed Wind Dir Waves Ship Positions

Rhapsody Of The Seas

Last reported at 2017-Dec-10 23:06 UTC. Time now 2017-Dec-12 04:27 UTC.
Position N 27°41' W 082°35'.

Type: Passenger vessel. MMSI: 311805000.

Date/timePositionNaut miles runAvg speedWind from/ knotsBaromVisibWave heightAir tempDewpointWater temp
2017-Dec-10 23:06N 27°41' W 082°35'114.0
2017-Dec-10 23:00N 27°42' W 082°33'612.8
2017-Dec-10 22:31N 27°47' W 082°30'611.4
2017-Dec-10 22:01N 27°52' W 082°27'4 7.2
2017-Dec-10 21:30N 27°56' W 082°27'1 2.7
2017-Dec-10 21:00N 27°57' W 082°27'0 0.0
2017-Dec-10 20:30N 27°57' W 082°27'0 0.0
2017-Dec-10 20:00N 27°57' W 082°27'0 0.0
2017-Dec-10 19:30N 27°57' W 082°27'0 0.0
2017-Dec-10 18:58N 27°57' W 082°27'0 0.0
2017-Dec-10 18:28N 27°57' W 082°27'0 0.0
2017-Dec-10 17:58N 27°57' W 082°27'0 0.0
2017-Dec-10 17:28N 27°57' W 082°27'0 0.0
2017-Dec-10 16:58N 27°57' W 082°27'0 0.0
2017-Dec-10 16:28N 27°57' W 082°27'0 0.0
2017-Dec-10 15:58N 27°57' W 082°27'0 0.0
2017-Dec-10 15:28N 27°57' W 082°27'0 0.0
2017-Dec-10 14:58N 27°57' W 082°27'0 0.0
2017-Dec-10 14:28N 27°57' W 082°27'0 0.0
2017-Dec-10 13:58N 27°57' W 082°27'0 0.0
2017-Dec-10 13:28N 27°57' W 082°27'0 0.0
2017-Dec-10 12:58N 27°57' W 082°27'0 0.0
2017-Dec-10 12:28N 27°57' W 082°27'0 0.0
2017-Dec-10 11:58N 27°57' W 082°27'0 0.8
2017-Dec-10 11:28N 27°57' W 082°27'1 2.4
2017-Dec-10 11:01N 27°55' W 082°27'3 6.5
2017-Dec-10 10:30N 27°52' W 082°27'611.8
2017-Dec-10 10:01N 27°47' W 082°30'49215.8
2017-Dec-09 02:57N 20°39' W 086°56'1022.8
2017-Dec-09 02:30N 20°31' W 087°03'2 0.0
2017-Dec-06 22:37N 20°29' W 087°02'215.1
2017-Dec-06 22:30N 20°30' W 087°00'3 5.1
2017-Dec-06 22:00N 20°31' W 086°57'0 0.0
2017-Dec-06 21:27N 20°31' W 086°57'0 0.0
2017-Dec-06 21:00N 20°31' W 086°57'  
2017-Dec-04 00:49N 27°35' W 082°60'716.7
2017-Dec-04 00:23N 27°36' W 082°52'714.6
2017-Dec-03 23:55N 27°36' W 082°44'914.6
2017-Dec-03 23:16N 27°41' W 082°35'414.7
2017-Dec-03 23:01N 27°44' W 082°32'612.3
2017-Dec-03 22:30N 27°48' W 082°27'611.9
2017-Dec-03 22:00N 27°54' W 082°26'2 3.9
2017-Dec-03 21:30N 27°56' W 082°27'1 1.4
2017-Dec-03 21:00N 27°57' W 082°27'0 0.0
2017-Dec-03 20:30N 27°57' W 082°27'0 0.0
2017-Dec-03 20:00N 27°57' W 082°27'0 0.0
2017-Dec-03 19:30N 27°57' W 082°27'0 0.0
2017-Dec-03 19:00N 27°57' W 082°27'0 0.0
2017-Dec-03 18:30N 27°57' W 082°27'0 0.0
2017-Dec-03 18:00N 27°57' W 082°27'0 0.0
2017-Dec-03 17:30N 27°57' W 082°27'0 0.0
2017-Dec-03 17:00N 27°57' W 082°27'0 0.0
2017-Dec-03 16:30N 27°57' W 082°27'0 0.0
2017-Dec-03 16:00N 27°57' W 082°27'0 0.0
2017-Dec-03 15:30N 27°57' W 082°27'0 0.0
2017-Dec-03 15:00N 27°57' W 082°27'0 0.0
2017-Dec-03 14:30N 27°57' W 082°27'0 0.0
2017-Dec-03 13:57N 27°57' W 082°27'0 0.0
2017-Dec-03 13:30N 27°57' W 082°27'0 0.0
2017-Dec-03 13:00N 27°57' W 082°27'0 0.0
2017-Dec-03 12:30N 27°57' W 082°27'0 0.0
2017-Dec-03 12:00N 27°57' W 082°27'0 0.0
2017-Dec-03 11:30N 27°57' W 082°27'0 0.8
2017-Dec-03 11:01N 27°56' W 082°27'2 3.3
2017-Dec-03 10:30N 27°55' W 082°27'4 8.1
2017-Dec-03 10:00N 27°51' W 082°27'612.0
2017-Dec-03 09:31N 27°46' W 082°31'2712.4
2017-Dec-03 07:20N 27°35' W 082°59'24817.3
2017-Dec-02 17:00N 23°48' W 084°48'   060 / 151015.0 25.019.126.0

Dump ship's entire track history